Time;durP1;ratioP1;P1;durP2;ratioP2;P2;SDS_P1;SDS_P2;PMS_P1;PMS_P2;Temp;Humidity;BMP_temperature;BMP_pressure;BME280_temperature;BME280_humidity;BME280_pressure;Samples;Min_cycle;Max_cycle;Signal;HPM_P1;HPM_P2
2021/12/24 00:01:14;;;;;;;0.20;0.20;;;-9.60;63.70;;;;;;4974469;28;20355;-74
2021/12/24 00:03:40;;;;;;;0.03;0.03;;;-9.60;63.70;;;;;;4974502;28;20027;-74
2021/12/24 00:06:07;;;;;;;0.32;0.08;;;-9.50;63.70;;;;;;4964113;28;20478;-73
2021/12/24 00:08:34;;;;;;;0.05;0.05;;;-9.50;63.60;;;;;;4994035;28;20109;-73
2021/12/24 00:11:01;;;;;;;0.13;0.13;;;-9.40;63.60;;;;;;4993692;28;20030;-75
2021/12/24 00:13:29;;;;;;;0.20;0.20;;;-9.50;63.40;;;;;;5010876;28;20034;-73
2021/12/24 00:37:21;;;;;;;0.03;0.03;;;-9.30;62.90;;;;;;4998077;28;20041;-73
2021/12/24 00:39:55;;;;;;;0.00;0.00;;;-9.30;63.00;;;;;;4993226;28;20389;-74
2021/12/24 00:42:21;;;;;;;0.10;0.10;;;-9.30;63.20;;;;;;5000801;28;20510;-74
2021/12/24 00:44:47;;;;;;;0.10;0.10;;;-9.30;63.30;;;;;;5013184;28;20065;-74
2021/12/24 00:47:12;;;;;;;0.00;0.00;;;-9.30;63.50;;;;;;5014994;28;20041;-73
2021/12/24 00:49:38;;;;;;;0.00;0.00;;;-9.20;63.70;;;;;;5015316;28;20392;-73
2021/12/24 00:52:49;;;;;;;0.00;0.00;;;-9.10;63.70;;;;;;5016827;28;20034;-73
2021/12/24 00:55:02;;;;;;;0.00;0.00;;;-9.10;63.80;;;;;;5008263;28;20144;-74
2021/12/24 00:57:33;;;;;;;0.00;0.00;;;-9.10;63.90;;;;;;4998827;28;20107;-74
2021/12/24 00:59:59;;;;;;;0.10;0.10;;;-9.10;64.00;;;;;;4997059;28;20038;-75
2021/12/24 01:02:25;;;;;;;0.22;0.17;;;-9.10;63.90;;;;;;4998245;28;20031;-74
2021/12/24 01:04:51;;;;;;;0.00;0.00;;;-9.00;64.00;;;;;;4996849;28;20034;-74
2021/12/24 01:07:17;;;;;;;0.10;0.10;;;-9.00;64.10;;;;;;5012706;28;20048;-74
2021/12/24 01:09:43;;;;;;;0.00;0.00;;;-9.00;64.10;;;;;;5017068;28;20030;-74
2021/12/24 01:12:09;;;;;;;0.00;0.00;;;-9.00;64.10;;;;;;4999825;28;20027;-74
2021/12/24 01:14:35;;;;;;;0.05;0.05;;;-8.90;64.10;;;;;;4996809;28;20117;-74
2021/12/24 01:19:33;;;;;;;0.10;0.10;;;-8.90;64.20;;;;;;4999772;28;20043;-74
2021/12/24 01:24:54;;;;;;;0.00;0.00;;;-8.90;64.20;;;;;;5016755;28;20034;-74
2021/12/24 01:27:38;;;;;;;0.10;0.10;;;-8.80;64.10;;;;;;4996805;28;20030;-74
2021/12/24 01:37:51;;;;;;;0.03;0.03;;;-8.80;64.20;;;;;;4991521;28;20107;-74
2021/12/24 01:38:24;;;;;;;0.00;0.00;;;-8.80;64.20;;;;;;4996281;28;20048;-74
2021/12/24 01:43:23;;;;;;;0.10;0.10;;;-8.80;64.30;;;;;;4997419;28;20031;-74
2021/12/24 01:45:52;;;;;;;0.00;0.00;;;-8.80;64.30;;;;;;4981467;28;20782;-74
2021/12/24 01:48:18;;;;;;;0.20;0.20;;;-8.80;64.30;;;;;;5015571;28;20030;-74
2021/12/24 01:50:47;;;;;;;0.00;0.00;;;-8.80;64.40;;;;;;5016150;28;20030;-74
2021/12/24 01:53:19;;;;;;;0.10;0.10;;;-8.80;64.40;;;;;;5015664;28;20026;-73
2021/12/24 01:55:47;;;;;;;0.00;0.00;;;-8.80;64.40;;;;;;5013815;28;20065;-74
2021/12/24 01:58:17;;;;;;;0.00;0.00;;;-8.70;64.40;;;;;;4995413;28;20034;-74
2021/12/24 02:00:46;;;;;;;0.00;0.00;;;-8.70;65.10;;;;;;4994965;28;20126;-74
2021/12/24 02:03:13;;;;;;;0.10;0.10;;;-8.70;64.50;;;;;;4996105;28;20105;-74
2021/12/24 02:05:40;;;;;;;0.00;0.00;;;-8.70;64.50;;;;;;4979594;28;20378;-74
2021/12/24 02:08:07;;;;;;;0.00;0.00;;;-8.70;64.60;;;;;;5015119;28;20394;-74
2021/12/24 02:10:33;;;;;;;0.10;0.10;;;-8.70;64.60;;;;;;5015356;28;20033;-74
2021/12/24 02:12:59;;;;;;;0.20;0.10;;;-8.60;64.60;;;;;;5015329;28;20026;-76
2021/12/24 02:18:34;;;;;;;0.00;0.00;;;-8.60;64.60;;;;;;4997008;28;20031;-73
2021/12/24 02:28:56;;;;;;;0.00;0.00;;;-8.60;64.60;;;;;;4999824;28;20438;-74
2021/12/24 02:31:24;;;;;;;0.10;0.10;;;-8.60;64.70;;;;;;4983476;28;20541;-73
2021/12/24 02:33:51;;;;;;;0.00;0.00;;;-8.60;64.70;;;;;;4975982;28;20105;-73
2021/12/24 02:36:20;;;;;;;0.00;0.00;;;-8.60;64.80;;;;;;4988266;28;20398;-73
2021/12/24 02:38:46;;;;;;;0.00;0.00;;;-8.60;64.80;;;;;;4989299;28;20031;-73
2021/12/24 02:41:12;;;;;;;0.00;0.00;;;-8.60;64.80;;;;;;4976787;28;20031;-74
2021/12/24 02:43:39;;;;;;;0.10;0.10;;;-8.50;64.80;;;;;;4958637;28;20027;-74
2021/12/24 02:46:22;;;;;;;0.10;0.10;;;-8.50;64.80;;;;;;4989827;28;20033;-74
2021/12/24 02:54:05;;;;;;;0.00;0.00;;;-8.40;64.70;;;;;;5014554;28;20072;-74
2021/12/24 02:56:34;;;;;;;0.00;0.00;;;-8.40;64.70;;;;;;5004369;28;20030;-74
2021/12/24 02:59:06;;;;;;;0.10;0.10;;;-8.50;64.60;;;;;;4994971;28;20497;-73
2021/12/24 03:01:35;;;;;;;0.00;0.00;;;-8.40;64.70;;;;;;4994907;28;20034;-74
2021/12/24 03:04:02;;;;;;;0.00;0.00;;;-8.40;64.70;;;;;;4994601;28;20023;-74
2021/12/24 03:06:31;;;;;;;0.00;0.00;;;-8.40;64.80;;;;;;4994392;28;20076;-73
2021/12/24 03:08:57;;;;;;;0.70;0.20;;;-8.40;64.80;;;;;;4995251;28;20064;-74
2021/12/24 03:11:24;;;;;;;0.03;0.03;;;-8.30;64.80;;;;;;4994698;28;20038;-74
2021/12/24 03:13:51;;;;;;;0.35;0.35;;;-8.30;64.70;;;;;;4994640;28;20525;-74
2021/12/24 03:16:17;;;;;;;0.10;0.10;;;-8.30;64.60;;;;;;5001716;28;20124;-74
2021/12/24 03:18:44;;;;;;;0.10;0.10;;;-8.30;65.10;;;;;;5014451;28;20038;-74
2021/12/24 03:21:17;;;;;;;0.00;0.00;;;-8.30;64.50;;;;;;5013655;28;20512;-74
2021/12/24 03:24:33;;;;;;;0.00;0.00;;;-8.30;64.50;;;;;;5014165;28;20033;-75
2021/12/24 03:26:42;;;;;;;0.08;0.08;;;-8.30;64.40;;;;;;5004432;28;20117;-75
2021/12/24 03:29:10;;;;;;;0.10;0.10;;;-8.30;64.30;;;;;;4994385;28;20525;-75
2021/12/24 03:31:37;;;;;;;0.10;0.10;;;-8.30;64.40;;;;;;4994504;28;20031;-75
2021/12/24 03:34:08;;;;;;;0.10;0.10;;;-8.30;64.40;;;;;;4994202;28;20118;-74
2021/12/24 03:36:34;;;;;;;0.20;0.20;;;-8.30;64.40;;;;;;4976882;28;20113;-74
2021/12/24 03:39:00;;;;;;;0.10;0.10;;;-8.30;64.50;;;;;;4994332;28;20112;-74
2021/12/24 03:41:26;;;;;;;0.10;0.10;;;-8.30;64.50;;;;;;4994149;28;20034;-74
2021/12/24 03:43:52;;;;;;;0.10;0.10;;;-8.30;64.60;;;;;;4985455;28;20560;-74
2021/12/24 03:46:24;;;;;;;0.15;0.15;;;-8.30;64.60;;;;;;4988016;28;20395;-74
2021/12/24 03:48:57;;;;;;;0.00;0.00;;;-8.40;64.50;;;;;;4995228;28;20035;-74
2021/12/24 03:56:43;;;;;;;0.25;0.25;;;-8.40;64.70;;;;;;5013717;28;20072;-75
2021/12/24 03:59:09;;;;;;;0.15;0.15;;;-8.30;64.80;;;;;;5013623;28;20088;-76
2021/12/24 04:01:36;;;;;;;0.43;0.43;;;-8.20;64.90;;;;;;5011861;28;20454;-74
2021/12/24 04:04:03;;;;;;;0.40;0.40;;;-8.20;64.90;;;;;;5013123;28;20382;-74
2021/12/24 04:06:30;;;;;;;0.25;0.25;;;-8.10;65.00;;;;;;5013495;28;20029;-73
2021/12/24 04:08:56;;;;;;;0.32;0.32;;;-8.00;65.10;;;;;;5013129;28;20406;-75
2021/12/24 04:11:22;;;;;;;0.10;0.10;;;-7.90;65.00;;;;;;5001975;28;20478;-75
2021/12/24 04:13:48;;;;;;;0.10;0.10;;;-7.80;64.90;;;;;;4993750;28;20037;-75
2021/12/24 04:16:14;;;;;;;0.05;0.05;;;-7.70;64.60;;;;;;4993797;28;20043;-75
2021/12/24 04:26:42;;;;;;;0.00;0.00;;;-7.50;64.00;;;;;;4980899;28;20126;-74
2021/12/24 04:29:08;;;;;;;0.40;0.40;;;-7.40;64.00;;;;;;5016149;28;20121;-75
2021/12/24 04:32:20;;;;;;;0.20;0.20;;;-7.40;63.70;;;;;;5006839;28;20064;-74
2021/12/24 04:34:27;;;;;;;0.20;0.20;;;-7.30;63.80;;;;;;4989233;28;20057;-75
2021/12/24 04:39:44;;;;;;;0.20;0.20;;;-7.20;63.50;;;;;;4999693;28;20046;-75
2021/12/24 05:03:42;;;;;;;0.10;0.10;;;-6.80;63.30;;;;;;5019684;28;20030;-74
2021/12/24 05:06:26;;;;;;;0.10;0.10;;;-6.80;63.30;;;;;;5019850;28;20026;-74
2021/12/24 05:11:19;;;;;;;0.00;0.00;;;-6.70;63.20;;;;;;5019759;28;20516;-74
2021/12/24 05:13:45;;;;;;;0.00;0.00;;;-6.60;63.30;;;;;;5019489;28;20026;-75
2021/12/24 05:24:01;;;;;;;0.00;0.00;;;-6.50;63.10;;;;;;4999834;28;19956;-75
2021/12/24 05:26:28;;;;;;;0.00;0.00;;;-6.40;62.80;;;;;;4999920;28;20134;-74
2021/12/24 05:28:54;;;;;;;0.03;0.03;;;-6.40;62.80;;;;;;4999864;28;20026;-75
2021/12/24 05:31:20;;;;;;;0.10;0.10;;;-6.40;63.00;;;;;;4999435;28;20382;-75
2021/12/24 05:33:46;;;;;;;0.00;0.00;;;-6.30;63.00;;;;;;4995595;28;20022;-73
2021/12/24 05:36:12;;;;;;;0.00;0.00;;;-6.30;63.00;;;;;;4995850;28;20512;-75
2021/12/24 05:38:37;;;;;;;0.00;0.00;;;-6.20;62.90;;;;;;5003766;28;20048;-75
2021/12/24 05:41:04;;;;;;;0.00;0.00;;;-6.20;63.40;;;;;;5015660;28;20434;-74
2021/12/24 05:43:30;;;;;;;0.00;0.00;;;-6.10;62.80;;;;;;5014054;28;20033;-76
2021/12/24 05:45:55;;;;;;;0.00;0.00;;;-6.10;62.80;;;;;;5010509;28;20466;-75
2021/12/24 05:48:21;;;;;;;0.00;0.00;;;-6.10;62.70;;;;;;5010824;28;20029;-75
2021/12/24 05:50:47;;;;;;;0.00;0.00;;;-6.00;62.80;;;;;;5015766;28;20029;-75
2021/12/24 05:53:13;;;;;;;0.00;0.00;;;-6.00;62.70;;;;;;5000851;28;20485;-76
2021/12/24 05:55:39;;;;;;;0.00;0.00;;;-6.00;62.50;;;;;;4996279;28;20415;-74
2021/12/24 05:58:07;;;;;;;0.00;0.00;;;-5.90;62.50;;;;;;5013597;28;20038;-75
2021/12/24 06:00:36;;;;;;;0.00;0.00;;;-5.90;62.50;;;;;;5015400;28;20048;-75
2021/12/24 06:03:02;;;;;;;0.00;0.00;;;-6.00;62.50;;;;;;5014291;28;20030;-74
2021/12/24 06:05:28;;;;;;;0.00;0.00;;;-6.00;62.60;;;;;;4997448;28;20304;-74
2021/12/24 06:07:54;;;;;;;0.00;0.00;;;-6.00;62.60;;;;;;4995894;28;20092;-75
2021/12/24 06:10:19;;;;;;;0.00;0.00;;;-6.00;62.70;;;;;;4996686;28;20393;-76
2021/12/24 06:12:45;;;;;;;0.00;0.00;;;-5.90;62.90;;;;;;4995907;28;20038;-75
2021/12/24 06:15:11;;;;;;;0.00;0.00;;;-5.90;62.90;;;;;;5001304;28;20026;-75
2021/12/24 06:17:38;;;;;;;0.00;0.00;;;-5.80;62.90;;;;;;5007149;28;20121;-75
2021/12/24 06:20:07;;;;;;;0.00;0.00;;;-5.80;62.80;;;;;;4995698;28;20034;-74
2021/12/24 06:22:32;;;;;;;0.00;0.00;;;-5.80;62.80;;;;;;4995391;28;20130;-76
2021/12/24 06:24:58;;;;;;;0.00;0.00;;;-5.70;62.70;;;;;;4995468;28;20099;-75
2021/12/24 06:27:24;;;;;;;0.00;0.00;;;-5.70;62.70;;;;;;4996442;28;20033;-74
2021/12/24 06:29:49;;;;;;;0.00;0.00;;;-5.70;62.60;;;;;;4997978;28;20438;-74
2021/12/24 06:32:15;;;;;;;0.00;0.00;;;-5.60;62.60;;;;;;4997528;28;20532;-77
2021/12/24 06:34:41;;;;;;;0.10;0.00;;;-5.60;62.40;;;;;;4995281;28;20030;-74
2021/12/24 06:37:08;;;;;;;0.00;0.00;;;-5.60;62.50;;;;;;5003258;28;20061;-75
2021/12/24 06:39:34;;;;;;;0.10;0.10;;;-5.50;62.60;;;;;;5000877;28;20589;-77
2021/12/24 06:42:00;;;;;;;0.05;0.05;;;-5.50;62.30;;;;;;5004476;28;20040;-75
2021/12/24 06:44:26;;;;;;;0.00;0.00;;;-5.50;62.20;;;;;;5012536;28;20394;-74
2021/12/24 06:46:52;;;;;;;0.10;0.10;;;-5.40;62.30;;;;;;5012938;28;20037;-75
2021/12/24 06:49:18;;;;;;;0.00;0.00;;;-5.40;62.10;;;;;;5002978;28;20034;-76
2021/12/24 06:51:44;;;;;;;0.00;0.00;;;-5.30;62.20;;;;;;4995071;28;20038;-74
2021/12/24 06:54:10;;;;;;;0.00;0.00;;;-5.30;62.10;;;;;;5007738;28;20400;-76
2021/12/24 06:56:37;;;;;;;0.00;0.00;;;-5.30;62.60;;;;;;5014093;28;20490;-75
2021/12/24 06:59:03;;;;;;;0.00;0.00;;;-5.30;61.90;;;;;;5011921;28;20135;-75
2021/12/24 07:01:29;;;;;;;0.00;0.00;;;-5.20;61.90;;;;;;5014317;28;20099;-76
2021/12/24 07:03:55;;;;;;;0.00;0.00;;;-5.20;61.80;;;;;;5001888;28;20418;-74
2021/12/24 07:06:24;;;;;;;0.00;0.00;;;-5.20;61.70;;;;;;5009822;28;20033;-74
2021/12/24 07:08:52;;;;;;;0.00;0.00;;;-5.20;62.00;;;;;;5011509;28;20049;-76
2021/12/24 07:11:18;;;;;;;0.00;0.00;;;-5.10;62.00;;;;;;4994766;28;20026;-76
2021/12/24 07:13:43;;;;;;;0.00;0.00;;;-5.00;61.80;;;;;;4994410;28;20034;-75
2021/12/24 07:16:09;;;;;;;0.00;0.00;;;-4.90;61.70;;;;;;4994384;28;20080;-75
2021/12/24 07:18:37;;;;;;;0.00;0.00;;;-4.90;61.60;;;;;;4994410;28;20034;-76
2021/12/24 07:21:04;;;;;;;0.00;0.00;;;-4.90;61.50;;;;;;4996969;28;20053;-76
2021/12/24 07:30:14;;;;;;;0.10;0.10;;;-4.60;61.40;;;;;;4992982;28;20080;-75
2021/12/24 07:32:43;;;;;;;0.00;0.00;;;-4.60;61.10;;;;;;4994207;28;20041;-74
2021/12/24 07:35:10;;;;;;;0.00;0.00;;;-4.50;61.10;;;;;;4980559;28;20039;-74
2021/12/24 07:37:38;;;;;;;0.00;0.00;;;-4.50;61.10;;;;;;4974480;28;20398;-74
2021/12/24 07:40:09;;;;;;;0.05;0.05;;;-4.40;61.20;;;;;;4976672;28;20485;-75
2021/12/24 07:42:35;;;;;;;1.02;0.00;;;-4.30;61.10;;;;;;4974452;28;20039;-74
2021/12/24 07:45:01;;;;;;;0.00;0.00;;;-4.30;61.00;;;;;;4986899;28;20034;-75
2021/12/24 07:47:31;;;;;;;0.00;0.00;;;-4.20;61.10;;;;;;5004125;28;20037;-75
2021/12/24 07:50:16;;;;;;;0.00;0.00;;;-4.20;61.20;;;;;;4995647;28;20581;-75
2021/12/24 07:52:42;;;;;;;0.00;0.00;;;-4.10;61.10;;;;;;4990612;28;20069;-77
2021/12/24 07:55:10;;;;;;;0.00;0.00;;;-4.00;61.00;;;;;;5004300;28;20088;-75
2021/12/24 07:57:39;;;;;;;0.00;0.00;;;-3.90;60.90;;;;;;4992821;28;20035;-75
2021/12/24 08:00:07;;;;;;;0.10;0.00;;;-3.90;60.80;;;;;;4994202;28;20150;-74
2021/12/24 08:02:33;;;;;;;0.00;0.00;;;-3.90;60.80;;;;;;5012291;28;20036;-76
2021/12/24 08:05:01;;;;;;;0.00;0.00;;;-3.80;61.10;;;;;;5010097;28;20042;-74
2021/12/24 08:07:27;;;;;;;0.00;0.00;;;-3.80;61.30;;;;;;5001458;28;20088;-75
2021/12/24 08:09:53;;;;;;;0.00;0.00;;;-3.70;61.10;;;;;;5013095;28;20026;-75
2021/12/24 08:12:20;;;;;;;0.00;0.00;;;-3.60;61.30;;;;;;5013116;28;20468;-75
2021/12/24 08:14:46;;;;;;;0.00;0.00;;;-3.60;61.40;;;;;;5013555;28;20079;-75
2021/12/24 08:17:12;;;;;;;0.00;0.00;;;-3.60;62.00;;;;;;5005705;28;20042;-75
2021/12/24 08:19:38;;;;;;;0.00;0.00;;;-3.50;61.70;;;;;;4993134;28;20026;-75
2021/12/24 08:22:05;;;;;;;0.00;0.00;;;-3.50;61.80;;;;;;4993343;28;20034;-75
2021/12/24 08:24:31;;;;;;;0.00;0.00;;;-3.40;62.10;;;;;;4992795;28;20026;-75
2021/12/24 08:26:58;;;;;;;0.00;0.00;;;-3.40;62.40;;;;;;4993587;28;20030;-76
2021/12/24 08:29:23;;;;;;;0.00;0.00;;;-3.40;62.40;;;;;;4992919;28;20121;-75
2021/12/24 08:31:51;;;;;;;0.00;0.00;;;-3.30;62.70;;;;;;4992746;28;20510;-74
2021/12/24 08:34:18;;;;;;;0.00;0.00;;;-3.30;62.50;;;;;;4992329;28;20046;-75
2021/12/24 08:36:48;;;;;;;0.00;0.00;;;-3.20;62.50;;;;;;4992162;28;20033;-75
2021/12/24 08:39:17;;;;;;;0.00;0.00;;;-3.20;62.60;;;;;;5004985;28;20104;-75
2021/12/24 08:41:43;;;;;;;0.10;0.00;;;-3.20;62.70;;;;;;4992138;28;20037;-75
2021/12/24 08:44:09;;;;;;;0.00;0.00;;;-3.20;62.90;;;;;;4993268;28;20030;-75
2021/12/24 08:46:36;;;;;;;0.00;0.00;;;-3.20;62.90;;;;;;4993194;28;20025;-75
2021/12/24 08:49:03;;;;;;;0.00;0.00;;;-3.20;63.20;;;;;;4993288;28;20076;-75
2021/12/24 08:51:32;;;;;;;0.00;0.00;;;-3.10;63.50;;;;;;4993427;28;20022;-75
2021/12/24 08:54:00;;;;;;;0.00;0.00;;;-3.10;63.30;;;;;;4993401;28;20073;-75
2021/12/24 08:56:26;;;;;;;0.08;0.08;;;-3.00;63.10;;;;;;4992360;28;20050;-76
2021/12/24 08:58:52;;;;;;;0.35;0.13;;;-3.00;63.30;;;;;;4993273;28;20034;-75
2021/12/24 09:01:18;;;;;;;0.00;0.00;;;-2.90;63.40;;;;;;4993483;28;20092;-75
2021/12/24 09:03:43;;;;;;;0.00;0.00;;;-2.90;63.60;;;;;;4992890;28;20084;-74
2021/12/24 09:06:12;;;;;;;0.00;0.00;;;-2.90;63.70;;;;;;4992809;28;20140;-76
2021/12/24 09:08:43;;;;;;;0.10;0.10;;;-2.80;63.80;;;;;;4996084;28;20335;-74
2021/12/24 09:11:09;;;;;;;0.00;0.00;;;-2.70;63.80;;;;;;4995031;28;20077;-75
2021/12/24 09:13:35;;;;;;;0.00;0.00;;;-2.70;63.90;;;;;;4996179;28;20022;-75
2021/12/24 09:16:01;;;;;;;0.00;0.00;;;-2.60;63.80;;;;;;4992150;28;20035;-74
2021/12/24 09:18:26;;;;;;;0.00;0.00;;;-2.60;63.40;;;;;;4994984;28;20089;-77
2021/12/24 09:20:54;;;;;;;0.00;0.00;;;-2.60;63.70;;;;;;4994992;28;20061;-75
2021/12/24 09:23:21;;;;;;;0.00;0.00;;;-2.50;63.80;;;;;;4995699;28;20113;-75
2021/12/24 09:25:47;;;;;;;0.00;0.00;;;-2.30;63.60;;;;;;5005216;28;20069;-75
2021/12/24 09:28:13;;;;;;;0.00;0.00;;;-2.30;63.60;;;;;;4996592;28;20061;-75
2021/12/24 09:30:39;;;;;;;0.00;0.00;;;-2.20;64.00;;;;;;4996272;28;20031;-76
2021/12/24 09:33:05;;;;;;;0.00;0.00;;;-2.10;63.00;;;;;;4995302;28;20046;-75
2021/12/24 09:35:33;;;;;;;0.00;0.00;;;-2.20;62.80;;;;;;4996258;28;20030;-75
2021/12/24 09:37:59;;;;;;;0.00;0.00;;;-2.10;63.10;;;;;;4995002;28;20406;-75
2021/12/24 09:44:03;;;;;;;0.00;0.00;;;-2.20;63.00;;;;;;4995601;28;20041;-76
2021/12/24 09:46:33;;;;;;;0.00;0.00;;;-2.20;63.10;;;;;;4978811;28;20030;-75
2021/12/24 09:48:59;;;;;;;0.10;0.00;;;-2.20;64.00;;;;;;4991951;28;20026;-76
2021/12/24 09:51:26;;;;;;;0.05;0.05;;;-2.20;63.60;;;;;;4996044;28;20027;-75
2021/12/24 09:53:53;;;;;;;0.00;0.00;;;-2.30;63.80;;;;;;4995274;28;20038;-75
2021/12/24 09:56:23;;;;;;;0.00;0.00;;;-2.20;63.90;;;;;;4987275;28;20037;-74
2021/12/24 09:58:49;;;;;;;0.00;0.00;;;-2.20;63.90;;;;;;4976433;28;20035;-74
2021/12/24 10:01:35;;;;;;;0.00;0.00;;;-2.10;63.90;;;;;;4976524;28;20038;-76
2021/12/24 10:04:07;;;;;;;0.20;0.00;;;-2.00;63.70;;;;;;4976341;28;20066;-74
2021/12/24 10:06:33;;;;;;;0.10;0.10;;;-2.10;63.60;;;;;;4975734;28;20478;-75
2021/12/24 10:09:11;;;;;;;0.20;0.10;;;-2.00;64.00;;;;;;4976413;28;20434;-75
2021/12/24 10:11:55;;;;;;;0.00;0.00;;;-1.80;64.00;;;;;;4994783;28;20030;-75
2021/12/24 10:14:28;;;;;;;0.00;0.00;;;-1.60;63.70;;;;;;4992755;28;20035;-75
2021/12/24 10:16:54;;;;;;;0.00;0.00;;;-1.50;63.30;;;;;;4995368;28;20022;-77
2021/12/24 10:19:21;;;;;;;0.00;0.00;;;-1.50;62.80;;;;;;4994588;28;20046;-76
2021/12/24 10:21:56;;;;;;;0.00;0.00;;;-1.50;62.80;;;;;;4995559;28;20097;-77
2021/12/24 10:24:25;;;;;;;0.00;0.00;;;-1.60;62.60;;;;;;4994532;28;20034;-76
2021/12/24 10:26:54;;;;;;;0.00;0.00;;;-1.60;62.90;;;;;;4993456;28;20022;-76
2021/12/24 10:29:42;;;;;;;0.00;0.00;;;-1.60;63.10;;;;;;4991944;28;20030;-76
2021/12/24 10:32:18;;;;;;;0.00;0.00;;;-1.60;63.30;;;;;;4993010;28;20050;-77
2021/12/24 10:34:44;;;;;;;0.00;0.00;;;-1.60;63.70;;;;;;4993240;28;20031;-76
2021/12/24 10:37:13;;;;;;;0.00;0.00;;;-1.60;63.20;;;;;;4995456;28;20366;-76
2021/12/24 10:39:45;;;;;;;0.00;0.00;;;-1.60;63.30;;;;;;4993486;28;20751;-76
2021/12/24 10:42:15;;;;;;;0.00;0.00;;;-1.70;63.30;;;;;;4993361;28;20053;-76
2021/12/24 10:44:42;;;;;;;0.00;0.00;;;-1.60;63.70;;;;;;5001471;28;20030;-76
2021/12/24 10:47:24;;;;;;;0.00;0.00;;;-1.60;63.80;;;;;;4994760;28;20109;-76
2021/12/24 10:55:19;;;;;;;0.00;0.00;;;-1.40;63.80;;;;;;4991866;28;20066;-75
2021/12/24 10:57:48;;;;;;;0.00;0.00;;;-1.40;63.80;;;;;;4990468;28;20342;-77
2021/12/24 11:00:39;;;;;;;0.00;0.00;;;-1.20;64.10;;;;;;4992034;28;20478;-77
2021/12/24 11:03:14;;;;;;;0.00;0.00;;;-1.10;64.10;;;;;;4993770;28;20033;-76
2021/12/24 11:05:43;;;;;;;0.00;0.00;;;-1.10;64.10;;;;;;4992818;28;20030;-76
2021/12/24 11:08:18;;;;;;;0.00;0.00;;;-1.00;63.90;;;;;;4991477;28;20022;-77
2021/12/24 11:10:47;;;;;;;0.00;0.00;;;-0.90;64.10;;;;;;4989546;28;20034;-76
2021/12/24 11:13:16;;;;;;;0.00;0.00;;;-0.70;63.90;;;;;;4979404;28;20046;-77
2021/12/24 11:15:46;;;;;;;0.00;0.00;;;-0.70;63.80;;;;;;4992783;28;20038;-76
2021/12/24 11:18:19;;;;;;;0.00;0.00;;;-0.60;63.80;;;;;;4993896;28;20034;-74
2021/12/24 11:20:50;;;;;;;0.00;0.00;;;-0.60;63.70;;;;;;4993999;28;20367;-77
2021/12/24 11:23:17;;;;;;;0.00;0.00;;;-0.60;63.50;;;;;;4991009;28;20391;-77
2021/12/24 11:25:45;;;;;;;0.00;0.00;;;-0.70;63.30;;;;;;4992381;28;20088;-76
2021/12/24 11:28:13;;;;;;;0.00;0.00;;;-0.70;63.50;;;;;;4993744;28;20026;-75
2021/12/24 11:30:42;;;;;;;0.00;0.00;;;-0.80;63.30;;;;;;4992498;28;20379;-75
2021/12/24 11:33:12;;;;;;;0.00;0.00;;;-0.80;63.70;;;;;;4993712;28;20041;-76
2021/12/24 11:35:39;;;;;;;0.00;0.00;;;-0.80;63.90;;;;;;4990574;28;20053;-76
2021/12/24 11:38:05;;;;;;;0.00;0.00;;;-0.80;64.10;;;;;;4993831;28;20371;-77
2021/12/24 11:40:34;;;;;;;0.00;0.00;;;-0.70;63.90;;;;;;4992831;28;20559;-75
2021/12/24 11:43:05;;;;;;;0.47;0.05;;;-0.60;64.00;;;;;;4992896;28;20034;-75
2021/12/24 11:45:33;;;;;;;0.00;0.00;;;-0.60;63.80;;;;;;4985449;28;20050;-77
2021/12/24 11:47:59;;;;;;;0.10;0.03;;;-0.60;63.40;;;;;;4991638;28;20382;-75
2021/12/24 11:50:26;;;;;;;0.00;0.00;;;-0.70;63.20;;;;;;4972952;28;20125;-75
2021/12/24 11:52:55;;;;;;;0.00;0.00;;;-0.70;63.40;;;;;;4974112;28;20047;-74
2021/12/24 11:55:23;;;;;;;0.00;0.00;;;-0.80;63.40;;;;;;4977101;28;20417;-75
2021/12/24 11:57:54;;;;;;;0.00;0.00;;;-0.80;63.40;;;;;;4992231;28;20417;-76
2021/12/24 12:00:44;;;;;;;0.00;0.00;;;-0.90;63.50;;;;;;4992917;28;20030;-76
2021/12/24 12:03:29;;;;;;;0.00;0.00;;;-1.00;63.50;;;;;;4953354;28;20506;-75
2021/12/24 12:05:54;;;;;;;0.03;0.00;;;-1.00;63.60;;;;;;4974147;28;20155;-76
2021/12/24 12:08:26;;;;;;;0.00;0.00;;;-1.00;63.70;;;;;;4974176;28;20059;-75
2021/12/24 12:11:06;;;;;;;0.00;0.00;;;-1.10;63.90;;;;;;4973931;28;20037;-76
2021/12/24 12:13:47;;;;;;;0.00;0.00;;;-1.00;64.00;;;;;;4972891;28;20073;-75
2021/12/24 12:16:14;;;;;;;0.00;0.00;;;-0.90;63.90;;;;;;4984750;28;20034;-77
2021/12/24 12:19:03;;;;;;;0.00;0.00;;;-0.90;63.70;;;;;;4993141;28;20023;-77
2021/12/24 12:21:37;;;;;;;0.00;0.00;;;-0.90;63.60;;;;;;4993438;28;20050;-76
2021/12/24 12:26:48;;;;;;;0.00;0.00;;;-0.90;63.60;;;;;;4993345;28;20041;-76
2021/12/24 12:29:43;;;;;;;0.00;0.00;;;-0.90;63.70;;;;;;4993402;28;20026;-75
2021/12/24 12:32:39;;;;;;;0.00;0.00;;;-0.90;63.70;;;;;;4993750;28;20026;-76
2021/12/24 12:35:05;;;;;;;;;;;-0.90;63.80;;;;;;4973868;28;20038;-78
2021/12/24 12:37:49;;;;;;;0.00;0.00;;;-0.80;63.80;;;;;;4987086;28;19928;-75
2021/12/24 12:40:20;;;;;;;0.00;0.00;;;-0.80;63.40;;;;;;4990807;28;20084;-75
2021/12/24 12:42:52;;;;;;;0.00;0.00;;;-0.90;63.60;;;;;;4984222;28;20438;-75
2021/12/24 12:48:48;;;;;;;0.00;0.00;;;-1.00;63.70;;;;;;4994778;28;20041;-77
2021/12/24 12:51:14;;;;;;;0.00;0.00;;;-1.00;63.80;;;;;;4994106;28;20057;-74
2021/12/24 12:53:41;;;;;;;0.00;0.00;;;-1.00;63.90;;;;;;4996866;28;20030;-77
2021/12/24 12:56:23;;;;;;;0.05;0.00;;;-1.00;63.90;;;;;;4996783;28;20030;-76
2021/12/24 12:59:31;;;;;;;0.00;0.00;;;-1.00;64.10;;;;;;4995604;28;20105;-76
2021/12/24 13:01:57;;;;;;;0.00;0.00;;;-1.00;64.30;;;;;;4994397;28;20023;-77
2021/12/24 13:04:23;;;;;;;0.00;0.00;;;-1.00;64.20;;;;;;4996391;28;20454;-77
2021/12/24 13:06:51;;;;;;;0.10;0.10;;;-1.10;64.00;;;;;;4995286;28;20034;-76
2021/12/24 13:09:24;;;;;;;0.00;0.00;;;-1.10;64.30;;;;;;4996538;28;20101;-76
2021/12/24 13:11:55;;;;;;;0.00;0.00;;;-1.00;64.30;;;;;;4978094;28;20026;-78
2021/12/24 13:14:28;;;;;;;0.00;0.00;;;-1.00;64.20;;;;;;4996835;28;20022;-75
2021/12/24 13:17:16;;;;;;;0.00;0.00;;;-1.10;64.30;;;;;;4994580;28;20088;-75
2021/12/24 13:22:30;;;;;;;0.00;0.00;;;-1.00;64.40;;;;;;4980744;28;20050;-77
2021/12/24 13:25:13;;;;;;;0.00;0.00;;;-1.00;64.40;;;;;;4996560;28;20057;-76
2021/12/24 13:27:51;;;;;;;0.00;0.00;;;-1.00;64.50;;;;;;4991439;28;20085;-76
2021/12/24 13:30:17;;;;;;;0.03;0.03;;;-1.00;64.40;;;;;;4996177;28;20034;-77
2021/12/24 13:32:49;;;;;;;0.10;0.03;;;-0.90;64.60;;;;;;4995275;28;20032;-76
2021/12/24 13:35:22;;;;;;;0.00;0.00;;;-0.90;64.60;;;;;;4990197;28;20035;-75
2021/12/24 13:37:53;;;;;;;0.00;0.00;;;-0.90;65.10;;;;;;4986364;28;20627;-77
2021/12/24 13:40:21;;;;;;;0.00;0.00;;;-0.90;64.60;;;;;;4976917;28;20062;-77
2021/12/24 13:42:56;;;;;;;0.10;0.10;;;-0.90;64.60;;;;;;4976672;28;20081;-76
2021/12/24 13:45:24;;;;;;;0.00;0.00;;;-0.90;64.80;;;;;;4976596;28;20340;-76
2021/12/24 13:48:02;;;;;;;0.00;0.00;;;-0.80;64.80;;;;;;4976428;28;20068;-77
2021/12/24 13:56:48;;;;;;;0.00;0.00;;;-0.70;64.80;;;;;;4995929;28;20488;-76
2021/12/24 13:59:19;;;;;;;0.00;0.00;;;-0.70;64.70;;;;;;4995543;28;20109;-76
2021/12/24 14:01:45;;;;;;;0.10;0.10;;;-0.70;64.90;;;;;;4995206;28;20430;-76
2021/12/24 14:04:15;;;;;;;0.03;0.03;;;-0.70;65.10;;;;;;4993406;28;20130;-76
2021/12/24 14:06:45;;;;;;;0.00;0.00;;;-0.70;65.20;;;;;;4995805;28;20036;-79
2021/12/24 14:09:12;;;;;;;0.10;0.10;;;-0.70;65.40;;;;;;4995686;28;20035;-76
2021/12/24 14:11:40;;;;;;;0.00;0.00;;;-0.70;65.40;;;;;;4995806;28;20049;-77
2021/12/24 14:14:11;;;;;;;0.03;0.03;;;-0.60;65.60;;;;;;4995418;28;20513;-78
2021/12/24 14:19:27;;;;;;;0.00;0.00;;;-0.60;65.40;;;;;;4988403;28;20493;-77
2021/12/24 14:21:53;;;;;;;0.03;0.03;;;-0.50;65.60;;;;;;4972547;28;20521;-75
2021/12/24 14:24:21;;;;;;;0.00;0.00;;;-0.50;65.60;;;;;;4975407;28;20026;-74
2021/12/24 14:26:50;;;;;;;1.08;0.10;;;-0.50;65.50;;;;;;4976061;28;20031;-75
2021/12/24 14:29:40;;;;;;;0.00;0.00;;;-0.40;65.60;;;;;;4975185;28;20371;-75
2021/12/24 14:32:16;;;;;;;0.10;0.10;;;-0.40;65.60;;;;;;4956903;28;20023;-75
2021/12/24 14:34:53;;;;;;;0.00;0.00;;;-0.40;65.80;;;;;;4956489;28;20032;-76
2021/12/24 14:37:25;;;;;;;0.00;0.00;;;-0.40;65.90;;;;;;4957089;28;20105;-74
2021/12/24 14:39:56;;;;;;;0.20;0.20;;;-0.30;65.90;;;;;;4956339;28;20082;-74
2021/12/24 14:42:39;;;;;;;0.15;0.15;;;-0.30;65.90;;;;;;4956693;28;20023;-74
2021/12/24 14:45:14;;;;;;;0.10;0.10;;;-0.20;66.00;;;;;;4956509;29;20031;-75
2021/12/24 14:47:40;;;;;;;0.10;0.10;;;-0.20;66.00;;;;;;4956045;29;20053;-75
2021/12/24 14:50:10;;;;;;;0.20;0.20;;;-0.20;65.90;;;;;;4955897;29;20436;-75
2021/12/24 14:52:37;;;;;;;0.25;0.25;;;-0.10;66.10;;;;;;4965787;28;20039;-76
2021/12/24 14:55:14;;;;;;;0.20;0.20;;;-0.10;66.30;;;;;;4975011;28;20082;-74
2021/12/24 14:57:47;;;;;;;0.00;0.00;;;-0.10;66.30;;;;;;4975056;28;20037;-75
2021/12/24 15:00:16;;;;;;;0.10;0.10;;;-0.10;66.40;;;;;;4970825;28;20086;-74
2021/12/24 15:02:48;;;;;;;0.00;0.00;;;-0.10;66.50;;;;;;4970331;28;20035;-75
2021/12/24 15:05:30;;;;;;;0.00;0.00;;;-0.20;66.50;;;;;;4974742;28;20034;-75
2021/12/24 15:07:57;;;;;;;0.10;0.10;;;-0.20;66.90;;;;;;4974858;28;20136;-74
2021/12/24 15:10:24;;;;;;;0.10;0.10;;;-0.20;66.80;;;;;;4974778;28;20027;-73
2021/12/24 15:12:59;;;;;;;0.00;0.00;;;-0.20;66.90;;;;;;4974938;28;20383;-74